Time;durP1;ratioP1;P1;durP2;ratioP2;P2;SDS_P1;SDS_P2;PMS_P1;PMS_P2;Temp;Humidity;BMP_temperature;BMP_pressure;BME280_temperature;BME280_humidity;BME280_pressure;Samples;Min_cycle;Max_cycle;Signal;HPM_P1;HPM_P2
2023/03/08 00:01:25;;;;;;;18.75;10.93;;;4.70;99.90;;;;;;5032599;28;20079;-80
2023/03/08 00:03:54;;;;;;;20.27;11.25;;;4.80;99.90;;;;;;5017149;28;20072;-81
2023/03/08 00:06:22;;;;;;;18.58;10.88;;;4.70;99.90;;;;;;5018552;28;20054;-80
2023/03/08 00:08:49;;;;;;;15.30;9.48;;;4.70;99.90;;;;;;5022652;28;20095;-80
2023/03/08 00:11:16;;;;;;;21.65;12.43;;;4.60;99.90;;;;;;5020751;28;20041;-81
2023/03/08 00:13:43;;;;;;;20.60;10.02;;;4.60;99.90;;;;;;5023103;28;20057;-80
2023/03/08 00:16:12;;;;;;;25.42;12.00;;;4.60;99.90;;;;;;5022348;28;20045;-80
2023/03/08 00:18:39;;;;;;;23.23;11.98;;;4.60;99.90;;;;;;5021741;28;20046;-80
2023/03/08 00:21:09;;;;;;;21.83;11.88;;;4.70;99.90;;;;;;5020301;28;20038;-80
2023/03/08 00:23:36;;;;;;;23.58;11.40;;;4.70;99.90;;;;;;5027641;28;20565;-81
2023/03/08 00:26:03;;;;;;;18.45;11.00;;;4.70;99.90;;;;;;5018821;28;20549;-81
2023/03/08 00:28:30;;;;;;;24.10;11.15;;;4.70;99.90;;;;;;5016170;28;20068;-80
2023/03/08 00:31:03;;;;;;;18.00;11.02;;;4.70;99.90;;;;;;5020248;28;20077;-80
2023/03/08 00:33:31;;;;;;;18.88;10.73;;;4.70;99.90;;;;;;5019830;28;20052;-80
2023/03/08 00:36:03;;;;;;;25.63;11.13;;;4.70;99.90;;;;;;5017550;28;20527;-80
2023/03/08 00:38:32;;;;;;;18.90;10.57;;;4.70;99.90;;;;;;5014695;28;20049;-80
2023/03/08 00:40:59;;;;;;;23.58;10.63;;;4.70;99.90;;;;;;5016312;28;20049;-80
2023/03/08 00:43:26;;;;;;;20.20;10.43;;;4.60;99.90;;;;;;5020463;28;20049;-80
2023/03/08 00:45:53;;;;;;;19.45;10.50;;;4.60;99.90;;;;;;5029193;28;20050;-80
2023/03/08 00:48:21;;;;;;;17.67;10.40;;;4.70;99.90;;;;;;5020049;28;20077;-80
2023/03/08 00:50:47;;;;;;;20.30;10.65;;;4.60;99.90;;;;;;5043902;28;20053;-81
2023/03/08 00:53:15;;;;;;;22.42;9.60;;;4.60;99.90;;;;;;5022488;28;20105;-80
2023/03/08 00:55:52;;;;;;;19.40;10.65;;;4.60;99.90;;;;;;5016867;28;20422;-80
2023/03/08 00:58:19;;;;;;;19.40;10.10;;;4.60;99.90;;;;;;5020250;28;20068;-81
2023/03/08 01:00:47;;;;;;;17.38;9.07;;;4.60;99.90;;;;;;5019651;28;20053;-82
2023/03/08 01:03:15;;;;;;;15.73;9.40;;;4.60;99.90;;;;;;5018697;28;20041;-81
2023/03/08 01:05:50;;;;;;;16.48;9.73;;;4.60;99.90;;;;;;5019212;28;20531;-79
2023/03/08 01:08:17;;;;;;;18.10;10.07;;;4.60;99.90;;;;;;5022586;28;20100;-81
2023/03/08 01:10:52;;;;;;;18.08;10.25;;;4.70;99.90;;;;;;5021620;28;20065;-80
2023/03/08 01:13:19;;;;;;;19.13;9.75;;;4.70;99.90;;;;;;5024008;28;20055;-81
2023/03/08 01:15:46;;;;;;;14.73;8.45;;;4.60;99.90;;;;;;5021585;28;20064;-80
2023/03/08 01:18:13;;;;;;;18.98;9.48;;;4.60;99.90;;;;;;5034913;28;20077;-81
2023/03/08 01:20:40;;;;;;;15.57;9.00;;;4.60;99.90;;;;;;5031468;28;20046;-80
2023/03/08 01:23:07;;;;;;;21.38;10.30;;;4.60;99.90;;;;;;5020837;28;20110;-81
2023/03/08 01:25:34;;;;;;;16.92;9.23;;;4.60;99.90;;;;;;5017117;28;20041;-80
2023/03/08 01:28:01;;;;;;;16.50;9.23;;;4.60;99.90;;;;;;5022436;28;20049;-80
2023/03/08 01:30:28;;;;;;;16.90;9.23;;;4.50;99.90;;;;;;5020597;28;20046;-81
2023/03/08 01:32:54;;;;;;;18.40;9.30;;;4.60;99.90;;;;;;5024464;28;20046;-81
2023/03/08 01:35:21;;;;;;;16.10;8.68;;;4.60;99.90;;;;;;5024213;28;20046;-80
2023/03/08 01:37:53;;;;;;;17.88;9.15;;;4.60;99.90;;;;;;5017115;28;20077;-82
2023/03/08 01:40:20;;;;;;;19.00;8.88;;;4.60;99.90;;;;;;5022784;28;20490;-81
2023/03/08 01:42:47;;;;;;;14.10;8.32;;;4.60;99.90;;;;;;5021153;28;20486;-80
2023/03/08 01:46:12;;;;;;;16.48;9.10;;;4.60;99.90;;;;;;5020799;28;20042;-81
2023/03/08 01:49:06;;;;;;;16.40;8.85;;;4.60;99.90;;;;;;4961730;28;20073;-80
2023/03/08 01:51:36;;;;;;;18.35;9.43;;;4.70;99.90;;;;;;4962073;28;20065;-81
2023/03/08 01:54:06;;;;;;;;;;;4.70;99.90;;;;;;5011604;28;20539;-81
2023/03/08 01:56:36;;;;;;;19.10;8.75;;;4.70;99.90;;;;;;5024120;28;19922;-82
2023/03/08 01:59:03;;;;;;;19.17;9.70;;;4.70;99.90;;;;;;5028869;28;20404;-81
2023/03/08 02:01:32;;;;;;;17.05;9.27;;;4.70;99.90;;;;;;5025550;28;20129;-81
2023/03/08 02:03:59;;;;;;;15.20;9.50;;;4.70;99.90;;;;;;5024138;28;20527;-81
2023/03/08 02:06:27;;;;;;;17.08;9.38;;;4.70;99.90;;;;;;5030310;28;20057;-81
2023/03/08 02:08:54;;;;;;;17.90;10.15;;;4.70;99.90;;;;;;5033951;28;20045;-81
2023/03/08 02:11:22;;;;;;;16.75;9.32;;;4.70;99.90;;;;;;5019308;28;20065;-81
2023/03/08 02:13:49;;;;;;;17.98;9.48;;;4.70;99.90;;;;;;5020415;28;20672;-80
2023/03/08 02:16:17;;;;;;;16.63;9.88;;;4.70;99.90;;;;;;5019238;28;20049;-80
2023/03/08 02:18:58;;;;;;;19.92;10.23;;;4.70;99.90;;;;;;5017427;28;20052;-82
2023/03/08 02:21:27;;;;;;;18.85;10.05;;;4.70;99.90;;;;;;5031176;28;20413;-80
2023/03/08 02:23:55;;;;;;;17.38;9.25;;;4.80;99.90;;;;;;5021671;28;20120;-82
2023/03/08 02:26:22;;;;;;;19.17;10.05;;;4.80;99.90;;;;;;5024058;28;20084;-83
2023/03/08 02:28:48;;;;;;;18.50;9.23;;;4.80;99.90;;;;;;5033925;28;20140;-82
2023/03/08 02:31:15;;;;;;;15.63;9.38;;;4.80;99.90;;;;;;5022209;28;20061;-81
2023/03/08 02:33:42;;;;;;;16.10;9.90;;;4.90;99.90;;;;;;5025538;28;20050;-81
2023/03/08 02:36:09;;;;;;;22.15;10.48;;;4.90;99.90;;;;;;5019667;28;20426;-81
2023/03/08 02:38:36;;;;;;;20.80;10.57;;;4.90;99.90;;;;;;5024109;28;20064;-82
2023/03/08 02:41:03;;;;;;;17.77;9.23;;;4.90;99.90;;;;;;5016673;28;20060;-81
2023/03/08 02:43:30;;;;;;;21.08;10.32;;;5.00;99.90;;;;;;5018161;28;20092;-81
2023/03/08 02:45:56;;;;;;;17.52;9.80;;;5.00;99.90;;;;;;5032331;28;20046;-82
2023/03/08 02:48:23;;;;;;;18.60;9.75;;;5.00;99.90;;;;;;5027830;28;20061;-82
2023/03/08 02:50:50;;;;;;;17.52;9.23;;;5.00;99.90;;;;;;5034990;28;20049;-81
2023/03/08 02:53:16;;;;;;;15.38;8.45;;;5.10;99.90;;;;;;5026398;28;20110;-80
2023/03/08 02:55:43;;;;;;;17.10;9.00;;;5.10;99.90;;;;;;5019724;28;20069;-81
2023/03/08 02:58:10;;;;;;;17.38;10.10;;;5.10;99.90;;;;;;5029704;28;20104;-80
2023/03/08 03:00:37;;;;;;;15.10;9.55;;;5.10;99.90;;;;;;5026657;28;20045;-81
2023/03/08 03:03:04;;;;;;;16.52;8.82;;;5.10;99.90;;;;;;5021333;28;20050;-81
2023/03/08 03:05:30;;;;;;;18.23;9.10;;;5.10;99.90;;;;;;5022084;28;20445;-82
2023/03/08 03:07:57;;;;;;;15.48;8.77;;;5.10;99.90;;;;;;5025009;28;20060;-82
2023/03/08 03:10:24;;;;;;;18.38;9.80;;;5.20;99.90;;;;;;5025090;28;20041;-81
2023/03/08 03:12:51;;;;;;;16.42;9.18;;;5.20;99.90;;;;;;5020445;28;20062;-81
2023/03/08 03:15:18;;;;;;;21.60;9.45;;;5.20;99.90;;;;;;5022836;28;20057;-81
2023/03/08 03:17:45;;;;;;;17.08;9.60;;;5.30;99.90;;;;;;5016680;28;20050;-82
2023/03/08 03:20:12;;;;;;;22.77;9.82;;;5.30;99.90;;;;;;5040891;28;20060;-82
2023/03/08 03:22:38;;;;;;;16.58;9.65;;;5.30;99.90;;;;;;5018004;28;20041;-81
2023/03/08 03:25:05;;;;;;;18.25;9.27;;;5.30;99.90;;;;;;5030375;28;20054;-79
2023/03/08 03:27:32;;;;;;;19.58;9.80;;;5.30;99.90;;;;;;5024495;28;20121;-82
2023/03/08 03:29:59;;;;;;;14.77;9.27;;;5.40;99.90;;;;;;5023600;28;20425;-79
2023/03/08 03:32:26;;;;;;;14.82;9.15;;;5.40;99.90;;;;;;5017237;28;20429;-81
2023/03/08 03:34:53;;;;;;;17.25;9.07;;;5.40;99.90;;;;;;5017508;28;20057;-81
2023/03/08 03:37:20;;;;;;;16.42;9.10;;;5.40;99.90;;;;;;5034600;28;20046;-79
2023/03/08 03:39:46;;;;;;;16.55;9.55;;;5.40;99.90;;;;;;5023341;28;20053;-81
2023/03/08 03:42:13;;;;;;;16.50;9.02;;;5.40;99.90;;;;;;5024374;28;20043;-82
2023/03/08 03:44:40;;;;;;;19.45;9.00;;;5.50;99.90;;;;;;5022346;28;20050;-81
2023/03/08 03:47:07;;;;;;;16.20;8.55;;;5.50;99.90;;;;;;5022153;28;20045;-83
2023/03/08 03:49:33;;;;;;;21.13;9.52;;;5.50;99.90;;;;;;5020045;28;20060;-81
2023/03/08 03:52:00;;;;;;;15.05;9.05;;;5.50;99.90;;;;;;5024254;28;20145;-80
2023/03/08 03:54:27;;;;;;;16.85;9.48;;;5.50;99.90;;;;;;5021432;28;20548;-82
2023/03/08 03:56:56;;;;;;;15.25;8.75;;;5.50;99.90;;;;;;5021458;28;20137;-82
2023/03/08 03:59:24;;;;;;;16.10;9.25;;;5.50;99.90;;;;;;5020738;28;20068;-83
2023/03/08 04:01:52;;;;;;;16.17;9.05;;;5.50;99.90;;;;;;5018658;28;20053;-80
2023/03/08 04:04:19;;;;;;;18.85;10.10;;;5.50;99.90;;;;;;5019072;28;20049;-81
2023/03/08 04:06:46;;;;;;;17.70;9.88;;;5.60;99.90;;;;;;5021690;28;20109;-81
2023/03/08 04:09:15;;;;;;;16.85;9.68;;;5.60;99.90;;;;;;5015451;28;20050;-81
2023/03/08 04:11:42;;;;;;;17.27;9.63;;;5.60;99.90;;;;;;5021583;28;20093;-80
2023/03/08 04:14:09;;;;;;;19.15;10.32;;;5.60;99.90;;;;;;5026425;28;20555;-82
2023/03/08 04:16:38;;;;;;;20.05;10.43;;;5.60;99.90;;;;;;5028114;28;20084;-81
2023/03/08 04:19:09;;;;;;;16.17;9.55;;;5.60;99.90;;;;;;5025515;28;20046;-80
2023/03/08 04:21:35;;;;;;;23.00;11.07;;;5.60;99.90;;;;;;5020488;28;20060;-81
2023/03/08 04:24:03;;;;;;;18.23;10.18;;;5.60;99.90;;;;;;5012945;28;20046;-82
2023/03/08 04:26:30;;;;;;;17.83;9.48;;;5.70;99.90;;;;;;5019538;28;20073;-80
2023/03/08 04:28:56;;;;;;;17.77;9.50;;;5.70;99.90;;;;;;5017337;28;20596;-80
2023/03/08 04:31:26;;;;;;;18.08;10.60;;;5.70;99.90;;;;;;5033705;28;20038;-80
2023/03/08 04:33:54;;;;;;;19.58;10.40;;;5.70;99.90;;;;;;5016627;28;20141;-80
2023/03/08 04:36:21;;;;;;;19.95;11.38;;;5.60;99.90;;;;;;5008804;28;20129;-79
2023/03/08 04:38:49;;;;;;;18.52;10.30;;;5.70;99.90;;;;;;5017925;28;20048;-80
2023/03/08 04:41:16;;;;;;;17.45;10.38;;;5.70;99.90;;;;;;5010940;28;20070;-80
2023/03/08 04:43:48;;;;;;;21.13;10.93;;;5.70;99.90;;;;;;5017486;28;20050;-82
2023/03/08 04:46:17;;;;;;;22.23;10.93;;;5.70;99.90;;;;;;5021117;28;20045;-81
2023/03/08 04:48:44;;;;;;;17.70;10.27;;;5.70;99.90;;;;;;5027060;28;20115;-79
2023/03/08 04:51:12;;;;;;;19.55;10.95;;;5.70;99.90;;;;;;5024949;28;20054;-81
2023/03/08 04:53:40;;;;;;;16.98;10.13;;;5.70;99.90;;;;;;5021990;28;20056;-82
2023/03/08 04:56:08;;;;;;;16.13;9.35;;;5.70;99.90;;;;;;5033627;28;20053;-80
2023/03/08 04:58:36;;;;;;;16.08;10.20;;;5.70;99.90;;;;;;5020089;28;20482;-80
2023/03/08 05:01:13;;;;;;;19.02;10.50;;;5.80;99.90;;;;;;5019703;28;20054;-80
2023/03/08 05:03:40;;;;;;;16.40;10.38;;;5.80;99.90;;;;;;5022194;28;20042;-82
2023/03/08 05:06:08;;;;;;;19.08;9.93;;;5.90;99.90;;;;;;5033687;28;20042;-80
2023/03/08 05:08:35;;;;;;;18.58;10.13;;;5.90;99.90;;;;;;5028523;28;20045;-81
2023/03/08 05:11:03;;;;;;;17.60;10.63;;;5.90;99.90;;;;;;5017689;28;20428;-80
2023/03/08 05:13:33;;;;;;;18.92;10.30;;;5.90;99.90;;;;;;5017983;28;20508;-81
2023/03/08 05:16:00;;;;;;;16.45;9.57;;;5.90;99.90;;;;;;5018832;28;20053;-79
2023/03/08 05:18:27;;;;;;;16.40;9.65;;;5.90;99.90;;;;;;5019999;28;20042;-79
2023/03/08 05:21:00;;;;;;;16.58;10.05;;;6.00;99.90;;;;;;5016747;28;20060;-79
2023/03/08 05:23:28;;;;;;;16.33;10.32;;;6.00;99.90;;;;;;5016798;28;20065;-80
2023/03/08 05:25:57;;;;;;;18.45;9.60;;;6.00;99.90;;;;;;5022115;28;20056;-81
2023/03/08 05:28:27;;;;;;;18.75;10.15;;;6.00;99.90;;;;;;5033487;28;20057;-79
2023/03/08 05:31:11;;;;;;;18.23;9.82;;;6.10;99.90;;;;;;5014179;28;20109;-80
2023/03/08 05:33:39;;;;;;;18.52;9.80;;;6.10;99.90;;;;;;5019370;28;20104;-80
2023/03/08 05:36:07;;;;;;;17.63;9.98;;;6.00;99.90;;;;;;5042509;28;20058;-80
2023/03/08 05:38:34;;;;;;;18.83;10.68;;;6.00;99.90;;;;;;5025268;28;20060;-80
2023/03/08 05:41:06;;;;;;;17.98;9.95;;;6.00;99.90;;;;;;5036261;28;20054;-79
2023/03/08 05:43:33;;;;;;;17.13;10.52;;;6.00;99.90;;;;;;5026360;28;20399;-79
2023/03/08 05:46:04;;;;;;;16.52;10.27;;;6.00;99.90;;;;;;5037426;28;20050;-79
2023/03/08 05:48:32;;;;;;;;;;;6.00;99.90;;;;;;5027066;28;20485;-78
2023/03/08 05:51:03;;;;;;;18.60;10.85;;;6.00;99.90;;;;;;5019267;28;19921;-80
2023/03/08 05:53:29;;;;;;;20.05;10.85;;;6.00;99.90;;;;;;5033246;28;20129;-81
2023/03/08 05:55:56;;;;;;;19.48;10.43;;;6.00;99.90;;;;;;5019382;28;20049;-80
2023/03/08 05:58:23;;;;;;;16.35;9.70;;;6.10;99.90;;;;;;5023039;28;20046;-79
2023/03/08 06:00:49;;;;;;;16.58;9.48;;;6.10;99.90;;;;;;5020084;28;20054;-80
2023/03/08 06:03:16;;;;;;;14.90;9.57;;;6.10;99.90;;;;;;5021819;28;20065;-80
2023/03/08 06:05:43;;;;;;;19.83;10.07;;;6.10;99.90;;;;;;5021877;28;20058;-78
2023/03/08 06:08:09;;;;;;;17.95;10.20;;;6.10;99.90;;;;;;5012020;28;20054;-80
2023/03/08 06:10:36;;;;;;;15.02;9.30;;;6.20;99.90;;;;;;5025054;28;20532;-83
2023/03/08 06:13:03;;;;;;;14.18;8.73;;;6.20;99.90;;;;;;5021664;28;20528;-81
2023/03/08 06:15:29;;;;;;;15.57;8.63;;;6.20;99.90;;;;;;5018107;28;20045;-80
2023/03/08 06:17:56;;;;;;;14.18;8.50;;;6.20;99.90;;;;;;5021563;28;20049;-80
2023/03/08 06:20:23;;;;;;;13.65;7.00;;;6.30;99.90;;;;;;5019321;28;20088;-80
2023/03/08 06:22:50;;;;;;;14.88;8.73;;;6.30;99.90;;;;;;5022511;28;20089;-80
2023/03/08 06:25:17;;;;;;;16.17;10.30;;;6.20;99.90;;;;;;5016059;28;20097;-80
2023/03/08 06:27:46;;;;;;;22.17;12.13;;;6.20;99.90;;;;;;5017162;28;20046;-80
2023/03/08 06:30:13;;;;;;;24.88;12.70;;;6.10;99.90;;;;;;5014416;28;20057;-79
2023/03/08 06:32:41;;;;;;;22.42;12.57;;;6.10;99.90;;;;;;5017479;28;20049;-80
2023/03/08 06:35:08;;;;;;;27.33;13.70;;;6.10;99.90;;;;;;5022234;28;20061;-81
2023/03/08 06:37:35;;;;;;;23.00;12.63;;;6.00;99.90;;;;;;5022288;28;20042;-81
2023/03/08 06:40:04;;;;;;;21.63;11.43;;;6.00;99.90;;;;;;5018081;28;20488;-81
2023/03/08 06:42:31;;;;;;;20.70;11.80;;;6.00;99.90;;;;;;5018899;28;20137;-79
2023/03/08 06:45:08;;;;;;;18.50;11.48;;;6.00;99.90;;;;;;5021010;28;20054;-79
2023/03/08 06:47:34;;;;;;;22.70;11.45;;;5.90;99.90;;;;;;5025497;28;20109;-82
2023/03/08 06:50:01;;;;;;;21.42;11.98;;;5.80;99.90;;;;;;5022014;28;20552;-79
2023/03/08 06:52:33;;;;;;;14.43;9.15;;;5.80;99.90;;;;;;5026003;28;20054;-82
2023/03/08 06:55:00;;;;;;;16.35;8.15;;;5.80;99.90;;;;;;5016753;28;20053;-82
2023/03/08 06:57:27;;;;;;;12.68;7.20;;;5.80;99.90;;;;;;5027841;28;20046;-82
2023/03/08 06:59:53;;;;;;;10.88;5.68;;;5.90;99.90;;;;;;5028272;28;20053;-80
2023/03/08 07:02:20;;;;;;;10.52;6.43;;;6.00;99.90;;;;;;5025068;28;20525;-83
2023/03/08 07:04:47;;;;;;;9.85;5.53;;;6.10;99.90;;;;;;5019106;28;20046;-80
2023/03/08 07:07:15;;;;;;;8.95;5.32;;;6.10;99.90;;;;;;5021723;28;20054;-81
2023/03/08 07:09:42;;;;;;;7.85;4.22;;;6.20;99.90;;;;;;5027902;28;20137;-81
2023/03/08 07:12:09;;;;;;;9.45;4.30;;;6.30;99.90;;;;;;5023618;28;20085;-82
2023/03/08 07:14:35;;;;;;;9.02;3.53;;;6.30;99.90;;;;;;5022507;28;20060;-82
2023/03/08 07:17:02;;;;;;;5.05;3.45;;;6.40;99.90;;;;;;5025703;28;20053;-82
2023/03/08 07:19:30;;;;;;;5.63;3.47;;;6.50;99.90;;;;;;5025365;28;20056;-83
2023/03/08 07:21:56;;;;;;;3.83;2.58;;;6.60;99.90;;;;;;5022134;28;20042;-82
2023/03/08 07:24:23;;;;;;;3.92;2.25;;;6.60;99.90;;;;;;5021881;28;20055;-83
2023/03/08 07:26:50;;;;;;;3.20;2.00;;;6.80;99.90;;;;;;5018406;28;20109;-81
2023/03/08 07:29:17;;;;;;;2.55;1.95;;;6.90;99.90;;;;;;5018036;28;20080;-81
2023/03/08 07:31:43;;;;;;;3.50;1.80;;;6.90;99.90;;;;;;5021021;28;20136;-82
2023/03/08 07:34:11;;;;;;;3.33;1.98;;;7.10;99.90;;;;;;5015672;28;20050;-81
2023/03/08 07:36:38;;;;;;;5.18;2.10;;;7.20;99.90;;;;;;5017237;28;20136;-82
2023/03/08 07:39:06;;;;;;;5.57;2.15;;;7.30;99.90;;;;;;5013519;28;20042;-81
2023/03/08 07:41:33;;;;;;;3.72;2.10;;;7.40;99.90;;;;;;5013545;28;20046;-82
2023/03/08 07:44:01;;;;;;;5.95;2.33;;;7.40;99.90;;;;;;5018207;28;20050;-81
2023/03/08 07:46:28;;;;;;;4.97;2.78;;;7.50;99.90;;;;;;5039130;28;20390;-79
2023/03/08 07:48:55;;;;;;;4.32;2.53;;;7.60;99.90;;;;;;5023839;28;20054;-80
2023/03/08 07:51:22;;;;;;;4.00;2.40;;;7.70;99.90;;;;;;5017273;28;20050;-80
2023/03/08 07:53:50;;;;;;;5.13;2.80;;;7.70;99.90;;;;;;5015069;28;20058;-80
2023/03/08 07:56:17;;;;;;;3.30;2.42;;;7.70;99.90;;;;;;5013439;28;20691;-80
2023/03/08 07:58:44;;;;;;;4.03;2.10;;;7.80;99.90;;;;;;5014234;28;20050;-79
2023/03/08 08:01:12;;;;;;;3.78;2.50;;;7.80;99.90;;;;;;5036683;28;20132;-80
2023/03/08 08:03:40;;;;;;;4.97;2.50;;;7.80;99.90;;;;;;5018504;28;20038;-79
2023/03/08 08:06:07;;;;;;;3.70;2.42;;;7.80;99.90;;;;;;5007841;28;20060;-82
2023/03/08 08:08:34;;;;;;;7.13;2.30;;;7.90;99.90;;;;;;5011436;28;20061;-80
2023/03/08 08:11:01;;;;;;;6.00;2.03;;;8.00;99.90;;;;;;5014433;28;20050;-82
2023/03/08 08:13:28;;;;;;;3.13;2.40;;;8.00;99.90;;;;;;5019657;28;20142;-82
2023/03/08 08:15:59;;;;;;;2.80;1.90;;;8.00;99.90;;;;;;5018274;28;20046;-78
2023/03/08 08:18:26;;;;;;;4.50;2.28;;;8.10;99.90;;;;;;5019361;28;20038;-80
2023/03/08 08:21:04;;;;;;;2.22;1.55;;;8.20;99.90;;;;;;5022048;28;20505;-80
2023/03/08 08:23:32;;;;;;;2.92;1.85;;;8.20;99.90;;;;;;5024449;28;20050;-79
2023/03/08 08:25:59;;;;;;;2.92;1.83;;;8.30;99.90;;;;;;5034076;28;20502;-80
2023/03/08 08:28:26;;;;;;;3.05;1.58;;;8.30;99.90;;;;;;5023694;28;20041;-81
2023/03/08 08:31:04;;;;;;;4.03;1.40;;;8.40;99.90;;;;;;5018024;28;20561;-80
2023/03/08 08:33:31;;;;;;;2.70;1.35;;;8.40;99.90;;;;;;5022234;28;20050;-79
2023/03/08 08:35:59;;;;;;;3.03;1.77;;;8.50;99.90;;;;;;5020864;28;20054;-82
2023/03/08 08:38:26;;;;;;;3.58;1.50;;;8.60;99.90;;;;;;5025463;28;20563;-80
2023/03/08 08:40:52;;;;;;;1.98;1.70;;;8.70;99.90;;;;;;5024250;28;20069;-80
2023/03/08 08:43:19;;;;;;;2.30;1.40;;;8.70;99.90;;;;;;5025765;28;20060;-79
2023/03/08 08:45:48;;;;;;;1.67;1.30;;;8.80;99.90;;;;;;5016342;28;20046;-79
2023/03/08 08:48:15;;;;;;;2.30;1.25;;;8.90;99.90;;;;;;5013608;28;20073;-78
2023/03/08 08:50:42;;;;;;;1.95;1.25;;;8.90;99.90;;;;;;5017321;28;20085;-78
2023/03/08 08:53:09;;;;;;;2.30;1.30;;;8.90;99.90;;;;;;5009754;28;20050;-80
2023/03/08 08:55:36;;;;;;;4.00;1.50;;;8.90;99.90;;;;;;5014260;28;20073;-80
2023/03/08 08:58:06;;;;;;;4.38;2.13;;;9.00;99.90;;;;;;5012467;28;20045;-80
2023/03/08 09:00:34;;;;;;;1.75;1.38;;;9.00;99.90;;;;;;5021915;28;20072;-81
2023/03/08 09:03:02;;;;;;;4.75;1.15;;;9.10;99.90;;;;;;5016768;28;20050;-83
2023/03/08 09:05:29;;;;;;;1.70;1.15;;;9.10;99.90;;;;;;5004105;28;20073;-81
2023/03/08 09:07:57;;;;;;;1.73;1.20;;;9.10;99.90;;;;;;5025506;28;20056;-80
2023/03/08 09:10:29;;;;;;;2.35;1.45;;;9.20;99.90;;;;;;5007676;28;20524;-81
2023/03/08 09:12:57;;;;;;;1.80;1.40;;;9.20;99.90;;;;;;5014696;28;20060;-80
2023/03/08 09:15:25;;;;;;;1.90;1.30;;;9.30;99.90;;;;;;5015558;28;20100;-80
2023/03/08 09:17:52;;;;;;;2.05;1.20;;;9.40;99.90;;;;;;5016829;28;20053;-80
2023/03/08 09:20:20;;;;;;;1.33;1.00;;;9.40;99.90;;;;;;5013593;28;20050;-80
2023/03/08 09:22:49;;;;;;;1.88;1.10;;;9.40;99.90;;;;;;5018039;28;20787;-80
2023/03/08 09:25:19;;;;;;;3.40;1.50;;;9.40;99.90;;;;;;5011065;28;20049;-83
2023/03/08 09:27:48;;;;;;;3.25;1.20;;;9.40;99.90;;;;;;5009558;28;20047;-81
2023/03/08 09:30:15;;;;;;;6.80;2.25;;;9.40;99.90;;;;;;5008478;28;20081;-82
2023/03/08 09:32:43;;;;;;;2.45;1.42;;;9.50;99.90;;;;;;5011149;28;20109;-81
2023/03/08 09:35:10;;;;;;;1.80;1.23;;;9.40;99.90;;;;;;5015057;28;20049;-78
2023/03/08 09:37:37;;;;;;;2.58;1.50;;;9.40;99.90;;;;;;5011459;28;20124;-80
2023/03/08 09:40:10;;;;;;;1.75;1.23;;;9.40;99.90;;;;;;5012305;28;20100;-79
2023/03/08 09:42:37;;;;;;;2.05;1.52;;;9.40;99.90;;;;;;5017820;28;20069;-81
2023/03/08 09:45:15;;;;;;;2.05;1.50;;;9.40;99.90;;;;;;5016997;28;20052;-84
2023/03/08 09:48:12;;;;;;;5.68;1.88;;;9.40;99.90;;;;;;5029517;28;20053;-79
2023/03/08 09:50:50;;;;;;;3.30;1.80;;;9.40;99.90;;;;;;5015483;28;20042;-80
2023/03/08 09:53:28;;;;;;;2.75;1.45;;;9.50;99.90;;;;;;5027530;28;20045;-80
2023/03/08 09:56:27;;;;;;;5.10;2.20;;;9.50;99.90;;;;;;5020761;28;20046;-79
2023/03/08 09:59:15;;;;;;;5.57;2.42;;;9.50;99.90;;;;;;5026477;28;20048;-81
2023/03/08 10:01:50;;;;;;;4.00;2.10;;;9.60;99.90;;;;;;5016810;28;20509;-81
2023/03/08 10:04:39;;;;;;;5.13;2.05;;;9.60;99.90;;;;;;5030395;28;20042;-80
2023/03/08 10:07:30;;;;;;;2.75;2.20;;;9.60;99.90;;;;;;5019195;28;20042;-80
2023/03/08 10:10:02;;;;;;;4.38;2.25;;;9.60;99.90;;;;;;5021529;28;20585;-80
2023/03/08 10:12:52;;;;;;;4.55;2.80;;;9.70;99.90;;;;;;5018067;28;20046;-82
2023/03/08 10:15:22;;;;;;;7.45;3.55;;;9.70;99.90;;;;;;5039991;28;20410;-80
2023/03/08 10:18:04;;;;;;;5.13;3.08;;;9.80;99.90;;;;;;5016596;28;20096;-80
2023/03/08 10:20:36;;;;;;;5.70;2.85;;;9.90;99.90;;;;;;5020928;28;20121;-80
2023/03/08 10:23:13;;;;;;;4.20;2.90;;;10.00;99.90;;;;;;5021251;28;20045;-81
2023/03/08 10:25:41;;;;;;;4.95;2.83;;;10.10;99.90;;;;;;5023791;28;20073;-81
2023/03/08 10:28:14;;;;;;;5.43;3.22;;;10.10;99.90;;;;;;5019547;28;20052;-81
2023/03/08 10:30:44;;;;;;;5.90;3.58;;;10.20;99.90;;;;;;5038011;28;20390;-80
2023/03/08 10:33:13;;;;;;;4.72;3.08;;;10.20;99.90;;;;;;5018125;28;20057;-83
2023/03/08 10:35:57;;;;;;;5.17;3.33;;;10.30;99.90;;;;;;5027989;28;20077;-79
2023/03/08 10:38:27;;;;;;;4.85;3.22;;;10.30;99.90;;;;;;5027159;28;20088;-81
2023/03/08 10:41:17;;;;;;;5.32;3.05;;;10.40;99.90;;;;;;5029981;28;20049;-80
2023/03/08 10:43:55;;;;;;;4.47;3.10;;;10.30;99.90;;;;;;5019904;28;20049;-81
2023/03/08 10:46:29;;;;;;;5.63;3.50;;;10.40;99.90;;;;;;5019437;28;20046;-81
2023/03/08 10:49:06;;;;;;;6.40;3.70;;;10.40;99.90;;;;;;5026160;28;20054;-79
2023/03/08 10:51:33;;;;;;;7.70;4.68;;;10.40;99.90;;;;;;5019019;28;20118;-80
2023/03/08 10:54:03;;;;;;;5.35;3.10;;;10.50;99.90;;;;;;5020417;28;20048;-80
2023/03/08 10:56:49;;;;;;;6.47;3.15;;;10.60;99.90;;;;;;5017856;28;20101;-82
2023/03/08 10:59:21;;;;;;;6.38;2.53;;;10.70;99.90;;;;;;5018610;28;20042;-80
2023/03/08 11:01:58;;;;;;;5.55;2.75;;;10.70;99.90;;;;;;5019122;28;20054;-79
2023/03/08 11:04:27;;;;;;;3.38;2.03;;;10.70;99.90;;;;;;5011264;28;20524;-80
2023/03/08 11:06:54;;;;;;;4.47;2.50;;;10.80;99.90;;;;;;5011567;28;20077;-80
2023/03/08 11:09:29;;;;;;;5.43;2.75;;;10.90;99.90;;;;;;5010287;28;20049;-81
2023/03/08 11:11:57;;;;;;;4.63;2.75;;;10.90;99.90;;;;;;5011480;28;20060;-83
2023/03/08 11:14:25;;;;;;;5.40;2.65;;;10.90;99.90;;;;;;5018136;28;20061;-80
2023/03/08 11:17:12;;;;;;;4.00;2.95;;;11.00;99.90;;;;;;5013005;28;20061;-81
2023/03/08 11:19:52;;;;;;;5.28;2.40;;;11.00;99.90;;;;;;5013935;28;20069;-81
2023/03/08 11:22:28;;;;;;;2.97;1.80;;;11.00;99.90;;;;;;5012579;28;20050;-80
2023/03/08 11:25:10;;;;;;;2.30;1.80;;;11.00;99.90;;;;;;5012714;28;20073;-81
2023/03/08 11:27:58;;;;;;;3.42;2.30;;;11.00;99.90;;;;;;5024867;28;20046;-79
2023/03/08 11:30:31;;;;;;;4.97;2.92;;;11.10;99.90;;;;;;5012634;28;20501;-81
2023/03/08 11:33:31;;;;;;;3.42;1.95;;;11.10;99.90;;;;;;5005622;28;20100;-79
2023/03/08 11:35:58;;;;;;;;;;;11.20;99.90;;;;;;5012367;28;20046;-80
2023/03/08 11:38:27;;;;;;;3.17;1.50;;;11.20;99.90;;;;;;5017399;28;20311;-82
2023/03/08 11:41:19;;;;;;;3.13;1.63;;;11.20;99.90;;;;;;5016374;28;20049;-80
2023/03/08 11:44:13;;;;;;;1.50;1.13;;;11.30;99.90;;;;;;5014575;28;20052;-82
2023/03/08 11:46:52;;;;;;;2.90;1.42;;;11.30;99.90;;;;;;5015873;28;20137;-82
2023/03/08 11:49:22;;;;;;;1.50;0.93;;;11.30;99.90;;;;;;5017122;28;20054;-80
2023/03/08 11:52:07;;;;;;;1.15;0.90;;;11.40;99.90;;;;;;5013754;28;20076;-83
2023/03/08 11:54:36;;;;;;;1.35;0.70;;;11.40;99.90;;;;;;5012674;28;20045;-79
2023/03/08 11:57:08;;;;;;;2.03;0.90;;;11.40;99.90;;;;;;5013966;28;20531;-80
2023/03/08 11:59:37;;;;;;;2.92;0.98;;;11.40;99.90;;;;;;5012852;28;20137;-80
2023/03/08 12:02:09;;;;;;;1.60;0.97;;;11.40;99.90;;;;;;5020375;28;20049;-80
2023/03/08 12:04:47;;;;;;;3.55;1.15;;;11.40;99.90;;;;;;5016560;28;20047;-79
2023/03/08 12:07:26;;;;;;;2.45;1.20;;;11.40;99.90;;;;;;5012067;28;20058;-80
2023/03/08 12:10:11;;;;;;;3.75;1.13;;;11.40;99.90;;;;;;5012511;28;20046;-81
2023/03/08 12:12:47;;;;;;;2.13;0.90;;;11.40;99.90;;;;;;5015954;28;20065;-80
2023/03/08 12:15:37;;;;;;;1.10;0.55;;;11.50;99.90;;;;;;5010970;28;20745;-80
2023/03/08 12:18:19;;;;;;;1.58;0.60;;;11.50;99.90;;;;;;5008510;28;20056;-80
2023/03/08 12:20:46;;;;;;;0.47;0.43;;;11.60;99.90;;;;;;5010768;28;20046;-80
2023/03/08 12:23:19;;;;;;;1.02;0.90;;;11.60;99.90;;;;;;5010264;28;20042;-80
2023/03/08 12:25:51;;;;;;;0.65;0.40;;;11.70;99.90;;;;;;5015577;28;20046;-81
2023/03/08 12:28:25;;;;;;;1.88;0.57;;;11.80;99.90;;;;;;5015056;28;20494;-79
2023/03/08 12:31:18;;;;;;;0.75;0.50;;;11.80;99.90;;;;;;5011790;28;20050;-81
2023/03/08 12:33:55;;;;;;;2.67;0.60;;;11.90;99.90;;;;;;5015428;28;20128;-81
2023/03/08 12:36:36;;;;;;;1.98;0.65;;;11.90;99.90;;;;;;5014744;28;20076;-80
2023/03/08 12:39:26;;;;;;;1.83;0.57;;;12.00;99.90;;;;;;5017512;28;20050;-81
2023/03/08 12:41:57;;;;;;;;;;;12.00;99.90;;;;;;5019071;28;20104;-78
2023/03/08 12:44:29;;;;;;;1.13;0.50;;;12.00;99.90;;;;;;5034165;28;20004;-81
2023/03/08 12:47:21;;;;;;;1.00;0.70;;;11.90;99.90;;;;;;5013195;28;20137;-82
2023/03/08 12:49:55;;;;;;;0.60;0.50;;;12.00;99.90;;;;;;5009681;28;20133;-80
2023/03/08 12:52:35;;;;;;;0.60;0.60;;;12.00;99.90;;;;;;5017417;28;20057;-80
2023/03/08 12:55:30;;;;;;;3.92;1.02;;;11.90;99.90;;;;;;5017623;28;20132;-82
2023/03/08 12:57:59;;;;;;;0.77;0.55;;;11.90;99.90;;;;;;5017046;28;20045;-81
2023/03/08 13:00:32;;;;;;;0.52;0.47;;;11.90;99.90;;;;;;5013944;28;20050;-81
2023/03/08 13:03:05;;;;;;;0.60;0.60;;;12.00;99.90;;;;;;5016956;28;20046;-81
2023/03/08 13:05:37;;;;;;;0.98;0.57;;;12.00;99.90;;;;;;5019861;28;20080;-80